createdAt,value
2022-09-06T00:00:55.120Z,70.66
2022-09-06T00:01:55.112Z,70.56
2022-09-06T00:02:55.163Z,70.96
2022-09-06T00:03:55.174Z,71.26
2022-09-06T00:04:55.104Z,71.06
2022-09-06T00:05:55.113Z,70.23
2022-09-06T00:06:55.093Z,70.56
2022-09-06T00:07:55.100Z,70.86
2022-09-06T00:08:55.080Z,70.66
2022-09-06T00:09:55.125Z,70.12
2022-09-06T00:10:58.975Z,69.62
2022-09-06T00:11:57.066Z,69.09
2022-09-06T00:12:55.076Z,69.19
2022-09-06T00:13:55.062Z,69.09
2022-09-06T00:14:55.029Z,68.99
2022-09-06T00:15:55.163Z,68.46
2022-09-06T00:16:55.031Z,68.46
2022-09-06T00:17:55.029Z,67.76
2022-09-06T00:18:55.025Z,68.26
2022-09-06T00:19:54.999Z,69.62
2022-09-06T00:20:55.033Z,69.42
2022-09-06T00:21:54.992Z,69.73
2022-09-06T00:22:54.989Z,69.49
2022-09-06T00:23:54.989Z,70.23
2022-09-06T00:24:54.973Z,70.03
2022-09-06T00:25:54.992Z,70.32
2022-09-06T00:26:54.968Z,69.29
2022-09-06T00:27:54.950Z,69.49
2022-09-06T00:28:54.982Z,70.23
2022-09-06T00:29:54.944Z,70.66
2022-09-06T00:30:55.055Z,71.16
2022-09-06T00:31:54.982Z,71.77
2022-09-06T00:32:54.930Z,71.66
2022-09-06T00:33:54.932Z,72.00
2022-09-06T00:34:54.922Z,71.70
2022-09-06T00:35:54.908Z,71.70
2022-09-06T00:36:54.912Z,72.20
2022-09-06T00:37:54.890Z,72.09
2022-09-06T00:38:54.897Z,71.90
2022-09-06T00:39:54.955Z,72.30
2022-09-06T00:40:54.943Z,71.73
2022-09-06T00:41:54.908Z,72.13
2022-09-06T00:42:54.876Z,72.53
2022-09-06T00:43:54.860Z,73.77
2022-09-06T00:44:54.875Z,73.27
2022-09-06T00:45:54.891Z,73.03
2022-09-06T00:46:54.854Z,72.43
2022-09-06T00:47:54.841Z,72.00
2022-09-06T00:48:54.834Z,72.03
2022-09-06T00:49:54.835Z,72.30
2022-09-06T00:50:54.822Z,72.09
2022-09-06T00:51:54.797Z,71.90
2022-09-06T00:52:54.806Z,72.33
2022-09-06T00:53:54.812Z,73.27
2022-09-06T00:54:54.773Z,73.77
2022-09-06T00:55:54.778Z,73.33
2022-09-06T00:56:54.777Z,72.74
2022-09-06T00:57:54.783Z,71.93
2022-09-06T00:58:54.753Z,72.53
2022-09-06T00:59:54.749Z,72.63
2022-09-06T01:00:54.746Z,72.63
2022-09-06T01:01:54.793Z,72.24
2022-09-06T01:02:54.832Z,72.24
2022-09-06T01:03:54.765Z,72.33
2022-09-06T01:04:54.739Z,72.00
2022-09-06T01:05:54.814Z,72.20
2022-09-06T01:06:54.715Z,71.43
2022-09-06T01:07:54.703Z,71.83
2022-09-06T01:08:54.718Z,71.83
2022-09-06T01:09:54.687Z,72.20
2022-09-06T01:10:54.674Z,72.13
2022-09-06T01:11:54.668Z,71.70
2022-09-06T01:12:54.668Z,71.73
2022-09-06T01:13:54.673Z,72.30
2022-09-06T01:14:54.680Z,71.50
2022-09-06T01:15:54.691Z,71.59
2022-09-06T01:16:54.647Z,71.70
2022-09-06T01:17:54.664Z,71.90
2022-09-06T01:18:54.627Z,72.03
2022-09-06T01:19:54.651Z,72.20
2022-09-06T01:20:54.616Z,71.59
2022-09-06T01:21:54.633Z,71.93
2022-09-06T01:22:54.604Z,72.24
2022-09-06T01:23:54.617Z,71.43
2022-09-06T01:24:54.587Z,71.80
2022-09-06T01:25:54.600Z,71.59
2022-09-06T01:26:55.252Z,71.70
2022-09-06T01:27:54.580Z,71.93
2022-09-06T01:28:54.563Z,72.17
2022-09-06T01:29:54.556Z,72.67
2022-09-06T01:30:54.598Z,73.50
2022-09-06T01:31:54.590Z,74.31
2022-09-06T01:32:54.543Z,74.04
2022-09-06T01:33:54.535Z,74.04
2022-09-06T01:34:54.531Z,74.58
2022-09-06T01:35:54.549Z,74.88
2022-09-06T01:37:09.507Z,75.29
2022-09-06T01:37:56.507Z,74.78
2022-09-06T01:38:54.507Z,74.78
2022-09-06T01:39:54.542Z,75.38
2022-09-06T01:40:54.495Z,75.32
2022-09-06T01:41:54.479Z,75.32
2022-09-06T01:42:54.508Z,75.52
2022-09-06T01:43:54.479Z,74.98
2022-09-06T01:44:54.470Z,74.88
2022-09-06T01:45:54.476Z,75.49
2022-09-06T01:46:54.458Z,75.18
2022-09-06T01:47:54.476Z,74.92
2022-09-06T01:48:54.440Z,76.23
2022-09-06T01:49:54.447Z,76.16
2022-09-06T01:50:54.436Z,75.82
2022-09-06T01:51:54.430Z,76.53
2022-09-06T01:52:54.415Z,75.92
2022-09-06T01:53:54.423Z,75.92
2022-09-06T01:54:54.397Z,76.03
2022-09-06T01:55:54.433Z,76.03
2022-09-06T01:56:54.388Z,76.12
2022-09-06T01:57:54.383Z,74.78
2022-09-06T01:58:54.380Z,74.28
2022-09-06T01:59:54.364Z,75.18
2022-09-06T02:00:54.372Z,75.72
2022-09-06T02:01:54.471Z,75.29
2022-09-06T02:02:54.365Z,75.68
2022-09-06T02:03:54.345Z,75.09
2022-09-06T02:04:54.351Z,75.42
2022-09-06T02:05:54.356Z,75.38
2022-09-06T02:06:54.339Z,74.48
2022-09-06T02:07:54.320Z,76.06
2022-09-06T02:08:54.343Z,76.67
2022-09-06T02:09:54.319Z,76.76
2022-09-06T02:10:54.287Z,76.36
2022-09-06T02:11:54.306Z,76.46
2022-09-06T02:12:54.320Z,77.07
2022-09-06T02:13:54.288Z,76.97
2022-09-06T02:14:54.279Z,77.61
2022-09-06T02:15:54.300Z,77.47
2022-09-06T02:16:54.327Z,77.40
2022-09-06T02:17:54.239Z,77.70
2022-09-06T02:18:54.247Z,78.01
2022-09-06T02:19:54.232Z,78.25
2022-09-06T02:20:54.258Z,78.01
2022-09-06T02:21:54.229Z,78.05
2022-09-06T02:22:54.204Z,78.21
2022-09-06T02:23:54.192Z,78.05
2022-09-06T02:24:54.215Z,78.35
2022-09-06T02:25:54.180Z,78.55
2022-09-06T02:26:54.195Z,79.19
2022-09-06T02:27:54.191Z,78.75
2022-09-06T02:28:54.175Z,78.15
2022-09-06T02:29:54.168Z,78.15
2022-09-06T02:30:54.207Z,78.65
2022-09-06T02:31:54.175Z,79.16
2022-09-06T02:32:54.131Z,79.05
2022-09-06T02:33:54.137Z,79.49
2022-09-06T02:34:54.132Z,79.39
2022-09-06T02:35:54.131Z,79.60
2022-09-06T02:36:54.192Z,80.00
2022-09-06T02:37:54.131Z,79.69
2022-09-06T02:38:54.091Z,78.71
2022-09-06T02:39:54.114Z,78.31
2022-09-06T02:40:54.260Z,78.45
2022-09-06T02:41:54.108Z,78.55
2022-09-06T02:42:54.077Z,78.75
2022-09-06T02:43:54.068Z,78.85
2022-09-06T02:44:54.055Z,78.75
2022-09-06T02:45:54.112Z,78.41
2022-09-06T02:46:57.176Z,77.91
2022-09-06T02:47:55.063Z,77.07
2022-09-06T02:48:54.083Z,76.76
2022-09-06T02:49:54.025Z,76.36
2022-09-06T02:50:54.208Z,77.40
2022-09-06T02:51:54.050Z,77.20
2022-09-06T02:52:54.030Z,76.97
2022-09-06T02:53:54.008Z,76.56
2022-09-06T02:54:54.027Z,76.90
2022-09-06T02:55:53.985Z,77.70
2022-09-06T02:56:53.983Z,77.61
2022-09-06T02:57:53.979Z,76.97
2022-09-06T02:58:54.033Z,76.46
2022-09-06T02:59:53.979Z,75.82
2022-09-06T03:00:54.033Z,75.62
2022-09-06T03:01:53.945Z,75.86
2022-09-06T03:02:53.948Z,76.56
2022-09-06T03:03:53.939Z,77.31
2022-09-06T03:04:53.975Z,77.61
2022-09-06T03:05:53.961Z,78.11
2022-09-06T03:06:53.933Z,78.15
2022-09-06T03:07:53.906Z,78.55
2022-09-06T03:08:53.927Z,78.55
2022-09-06T03:09:53.890Z,77.77
2022-09-06T03:10:53.906Z,77.27
2022-09-06T03:11:53.890Z,77.47
2022-09-06T03:12:53.881Z,77.27
2022-09-06T03:13:53.887Z,76.87
2022-09-06T03:14:55.131Z,77.17
2022-09-06T03:15:54.894Z,76.97
2022-09-06T03:16:53.938Z,76.87
2022-09-06T03:17:53.856Z,77.07
2022-09-06T03:18:53.848Z,77.61
2022-09-06T03:19:53.864Z,77.81
2022-09-06T03:20:53.847Z,77.67
2022-09-06T03:21:53.855Z,77.47
2022-09-06T03:22:53.816Z,77.07
2022-09-06T03:23:53.827Z,76.83
2022-09-06T03:24:53.811Z,76.63
2022-09-06T03:25:53.831Z,76.23
2022-09-06T03:26:53.791Z,75.99
2022-09-06T03:27:53.788Z,75.18
2022-09-06T03:28:53.767Z,75.38
2022-09-06T03:29:53.780Z,75.89
2022-09-06T03:30:53.861Z,75.99
2022-09-06T03:31:53.752Z,75.89
2022-09-06T03:32:53.792Z,75.59
2022-09-06T03:33:53.751Z,75.09
2022-09-06T03:34:54.288Z,74.55
2022-09-06T03:35:53.735Z,75.09
2022-09-06T03:36:53.731Z,75.49
2022-09-06T03:37:53.780Z,76.03
2022-09-06T03:38:54.261Z,75.99
2022-09-06T03:39:53.787Z,76.23
2022-09-06T03:40:53.692Z,76.32
2022-09-06T03:41:53.707Z,76.32
2022-09-06T03:42:53.696Z,76.63
2022-09-06T03:43:53.683Z,76.93
2022-09-06T03:44:53.730Z,76.83
2022-09-06T03:45:53.764Z,77.03
2022-09-06T03:46:53.699Z,76.93
2022-09-06T03:47:53.640Z,76.93
2022-09-06T03:48:54.672Z,76.93
2022-09-06T03:49:53.640Z,76.83
2022-09-06T03:50:53.693Z,76.19
2022-09-06T03:51:53.610Z,75.99
2022-09-06T03:52:53.628Z,75.99
2022-09-06T03:53:53.635Z,76.09
2022-09-06T03:54:53.594Z,76.15
2022-09-06T03:55:53.588Z,75.15
2022-09-06T03:56:54.631Z,74.61
2022-09-06T03:57:53.643Z,74.01
2022-09-06T03:58:53.585Z,73.47
2022-09-06T03:59:53.571Z,73.17
2022-09-06T04:00:53.600Z,73.07
2022-09-06T04:01:53.684Z,72.94
2022-09-06T04:02:53.620Z,72.33
2022-09-06T04:03:53.579Z,72.24
2022-09-06T04:04:53.531Z,72.24
2022-09-06T04:05:53.551Z,71.83
2022-09-06T04:06:53.515Z,72.13
2022-09-06T04:07:53.552Z,72.56
2022-09-06T04:08:53.542Z,73.67
2022-09-06T04:09:53.507Z,73.71
2022-09-06T04:10:53.528Z,74.41
2022-09-06T04:11:53.503Z,73.91
2022-09-06T04:12:53.495Z,73.91
2022-09-06T04:13:53.519Z,73.61
2022-09-06T04:14:53.479Z,74.85
2022-09-06T04:15:53.465Z,75.45
2022-09-06T04:16:53.561Z,74.95
2022-09-06T04:17:53.451Z,74.74
2022-09-06T04:18:53.503Z,74.55
2022-09-06T04:19:53.440Z,74.85
2022-09-06T04:20:53.423Z,74.31
2022-09-06T04:21:53.464Z,73.71
2022-09-06T04:22:53.599Z,74.01
2022-09-06T04:23:53.459Z,73.07
2022-09-06T04:24:53.419Z,73.77
2022-09-06T04:25:53.391Z,74.11
2022-09-06T04:26:53.407Z,74.55
2022-09-06T04:27:53.440Z,74.44
2022-09-06T04:28:53.446Z,75.35
2022-09-06T04:29:53.367Z,74.85
2022-09-06T04:30:53.363Z,74.55
2022-09-06T04:31:53.457Z,75.29
2022-09-06T04:32:53.374Z,77.33
2022-09-06T04:33:53.360Z,77.67
2022-09-06T04:34:53.405Z,78.61
2022-09-06T04:35:53.338Z,78.51
2022-09-06T04:36:53.315Z,77.73
2022-09-06T04:37:53.336Z,77.13
2022-09-06T04:38:53.295Z,76.49
2022-09-06T04:39:53.386Z,75.85
2022-09-06T04:40:53.323Z,75.21
2022-09-06T04:41:53.284Z,74.18
2022-09-06T04:42:53.323Z,73.67
2022-09-06T04:43:53.272Z,73.27
2022-09-06T04:44:53.259Z,74.18
2022-09-06T04:45:53.351Z,74.37
2022-09-06T04:46:54.795Z,75.01
2022-09-06T04:47:53.239Z,74.68
2022-09-06T04:48:53.277Z,74.77
2022-09-06T04:49:53.226Z,73.74
2022-09-06T04:50:53.231Z,73.44
2022-09-06T04:51:53.229Z,73.03
2022-09-06T04:52:53.213Z,73.00
2022-09-06T04:53:53.206Z,72.90
2022-09-06T04:54:53.190Z,73.60
2022-09-06T04:55:53.202Z,74.27
2022-09-06T04:56:53.177Z,74.74
2022-09-06T04:57:53.193Z,74.77
2022-09-06T04:58:53.174Z,74.68
2022-09-06T04:59:53.238Z,75.58
2022-09-06T05:00:53.197Z,76.12
2022-09-06T05:01:53.187Z,75.88
2022-09-06T05:02:53.739Z,75.48
2022-09-06T05:03:56.732Z,75.18
2022-09-06T05:04:54.250Z,75.27
2022-09-06T05:05:53.137Z,75.38
2022-09-06T05:06:53.141Z,75.92
2022-09-06T05:07:53.129Z,76.58
2022-09-06T05:08:53.146Z,76.38
2022-09-06T05:09:53.113Z,75.48
2022-09-06T05:10:53.161Z,74.64
2022-09-06T05:11:53.113Z,74.64
2022-09-06T05:12:53.077Z,75.38
2022-09-06T05:13:53.117Z,75.68
2022-09-06T05:14:53.081Z,76.08
2022-09-06T05:15:53.793Z,76.38
2022-09-06T05:16:53.151Z,76.48
2022-09-06T05:17:53.041Z,76.62
2022-09-06T05:18:53.046Z,76.82
2022-09-06T05:19:53.657Z,76.82
2022-09-06T05:20:53.048Z,76.62
2022-09-06T05:21:53.045Z,76.92
2022-09-06T05:22:53.053Z,76.92
2022-09-06T05:23:56.671Z,76.72
2022-09-06T05:24:55.025Z,75.84
2022-09-06T05:25:52.999Z,74.54
2022-09-06T05:26:53.001Z,74.64
2022-09-06T05:27:52.986Z,74.51
2022-09-06T05:28:52.992Z,73.70
2022-09-06T05:29:52.969Z,73.67
2022-09-06T05:30:52.977Z,73.90
2022-09-06T05:31:53.039Z,74.01
2022-09-06T05:32:52.965Z,73.80
2022-09-06T05:33:52.959Z,73.16
2022-09-06T05:34:52.987Z,72.93
2022-09-06T05:35:52.931Z,73.27
2022-09-06T05:36:52.923Z,73.57
2022-09-06T05:37:52.947Z,72.47
2022-09-06T05:38:52.902Z,71.93
2022-09-06T05:39:52.958Z,71.93
2022-09-06T05:40:52.920Z,71.83
2022-09-06T05:41:52.931Z,71.93
2022-09-06T05:42:52.902Z,71.63
2022-09-06T05:43:52.952Z,71.83
2022-09-06T05:44:52.867Z,72.13
2022-09-06T05:45:53.860Z,72.56
2022-09-06T05:46:52.875Z,73.07
2022-09-06T05:47:52.831Z,73.50
2022-09-06T05:48:53.851Z,74.20
2022-09-06T05:49:52.849Z,73.60
2022-09-06T05:50:52.836Z,73.70
2022-09-06T05:51:52.819Z,73.60
2022-09-06T05:52:52.910Z,73.50
2022-09-06T05:53:52.811Z,74.10
2022-09-06T05:54:52.799Z,75.34
2022-09-06T05:55:52.791Z,75.84
2022-09-06T05:56:52.779Z,76.04
2022-09-06T05:57:52.786Z,75.14
2022-09-06T05:58:52.783Z,75.34
2022-09-06T05:59:52.764Z,75.78
2022-09-06T06:00:52.864Z,76.58
2022-09-06T06:01:52.858Z,75.81
2022-09-06T06:02:52.742Z,75.01
2022-09-06T06:03:52.769Z,73.97
2022-09-06T06:04:52.803Z,74.17
2022-09-06T06:05:52.727Z,74.40
2022-09-06T06:06:53.303Z,74.07
2022-09-06T06:07:52.720Z,73.77
2022-09-06T06:08:52.719Z,73.43
2022-09-06T06:09:52.691Z,73.03
2022-09-06T06:10:52.715Z,73.03
2022-09-06T06:11:53.680Z,72.73
2022-09-06T06:12:52.695Z,72.53
2022-09-06T06:13:52.692Z,72.30
2022-09-06T06:14:52.683Z,71.80
2022-09-06T06:15:52.655Z,72.06
2022-09-06T06:16:52.761Z,71.26
2022-09-06T06:17:52.641Z,71.62
2022-09-06T06:18:52.956Z,70.92
2022-09-06T06:19:52.651Z,70.56
2022-09-06T06:20:52.620Z,71.53
2022-09-06T06:21:52.617Z,71.42
2022-09-06T06:22:52.643Z,72.30
2022-09-06T06:23:52.627Z,72.50
2022-09-06T06:24:52.615Z,72.69
2022-09-06T06:25:52.672Z,71.76
2022-09-06T06:26:52.587Z,72.16
2022-09-06T06:27:52.582Z,72.46
2022-09-06T06:28:52.582Z,71.73
2022-09-06T06:29:52.575Z,71.76
2022-09-06T06:30:52.559Z,71.46
2022-09-06T06:31:52.673Z,71.86
2022-09-06T06:32:52.537Z,71.76
2022-09-06T06:33:53.537Z,71.62
2022-09-06T06:34:52.597Z,70.92
2022-09-06T06:35:52.538Z,70.92
2022-09-06T06:36:52.509Z,71.53
2022-09-06T06:37:52.541Z,70.49
2022-09-06T06:38:52.506Z,70.66
2022-09-06T06:39:52.607Z,70.26
2022-09-06T06:40:57.216Z,70.32
2022-09-06T06:41:54.486Z,69.13
2022-09-06T06:42:52.488Z,69.43
2022-09-06T06:43:52.583Z,68.59
2022-09-06T06:44:52.467Z,68.29
2022-09-06T06:45:52.508Z,68.10
2022-09-06T06:46:52.519Z,67.76
2022-09-06T06:47:52.491Z,68.40
2022-09-06T06:48:54.899Z,68.63
2022-09-06T06:49:53.511Z,68.49
2022-09-06T06:50:52.475Z,67.86
2022-09-06T06:51:52.454Z,68.36
2022-09-06T06:52:52.619Z,67.26
2022-09-06T06:53:52.421Z,67.43
2022-09-06T06:54:52.407Z,67.76
2022-09-06T06:55:52.555Z,68.40
2022-09-06T06:56:52.391Z,68.79
2022-09-06T06:57:53.431Z,68.79
2022-09-06T06:58:52.387Z,68.89
2022-09-06T06:59:52.399Z,68.36
2022-09-06T07:00:52.467Z,68.66
2022-09-06T07:01:52.587Z,69.06
2022-09-06T07:02:52.403Z,68.76
2022-09-06T07:03:52.436Z,68.23
2022-09-06T07:04:52.361Z,68.16
2022-09-06T07:07:54.456Z,69.06
2022-09-06T07:08:52.340Z,69.36
2022-09-06T07:10:55.284Z,69.16
2022-09-06T07:11:52.360Z,68.13
2022-09-06T07:12:52.365Z,66.97
2022-09-06T07:13:52.333Z,65.74
2022-09-06T07:14:52.386Z,64.22
2022-09-06T07:15:52.361Z,65.24
2022-09-06T07:16:52.343Z,64.31
2022-09-06T07:17:52.314Z,63.79
2022-09-06T07:18:52.362Z,62.99
2022-09-06T07:20:22.269Z,62.66
2022-09-06T07:21:54.330Z,62.46
2022-09-06T07:22:52.290Z,62.16
2022-09-06T07:24:08.387Z,62.13
2022-09-06T07:24:54.262Z,61.64
2022-09-06T07:25:52.289Z,60.97
2022-09-06T07:27:54.290Z,61.21
2022-09-06T07:28:52.244Z,60.55
2022-09-06T07:29:52.290Z,61.96
2022-09-06T07:30:52.233Z,62.16
2022-09-06T07:32:54.239Z,62.56
2022-09-06T07:33:55.181Z,62.16
2022-09-06T07:34:53.222Z,62.04
2022-09-06T07:35:52.216Z,60.42
2022-09-06T07:36:52.257Z,60.28
2022-09-06T07:37:52.226Z,58.84
2022-09-06T07:38:52.183Z,58.80
2022-09-06T07:39:52.215Z,59.69
2022-09-06T07:40:52.270Z,59.99
2022-09-06T07:41:52.161Z,60.49
2022-09-06T07:42:52.177Z,60.31
2022-09-06T07:43:52.159Z,61.24
2022-09-06T07:44:52.155Z,60.42
2022-09-06T07:45:52.116Z,60.58
2022-09-06T07:46:52.590Z,59.89
2022-09-06T07:47:59.430Z,59.69
2022-09-06T07:48:54.114Z,59.69
2022-09-06T07:50:58.865Z,60.09
2022-09-06T07:51:53.119Z,59.27
2022-09-06T07:53:10.935Z,58.27
2022-09-06T07:54:07.009Z,59.07
2022-09-06T07:54:53.074Z,57.92
2022-09-06T07:55:52.115Z,57.27
2022-09-06T07:56:52.046Z,56.35
2022-09-06T07:57:52.078Z,55.11
2022-09-06T07:58:52.047Z,52.98
2022-09-06T07:59:52.055Z,52.86
2022-09-06T08:00:52.061Z,54.59
2022-09-06T08:01:52.088Z,54.32
2022-09-06T08:02:52.052Z,53.80
2022-09-06T08:03:52.055Z,52.26
2022-09-06T08:04:52.005Z,49.73
2022-09-06T08:09:52.967Z,49.99
2022-09-06T08:10:51.951Z,51.77
2022-09-06T08:11:51.946Z,53.99
2022-09-06T08:12:51.942Z,54.77
2022-09-06T08:13:51.970Z,54.89
2022-09-06T08:14:52.003Z,55.21
2022-09-06T08:15:52.006Z,56.51
2022-09-06T08:16:51.931Z,56.40
2022-09-06T08:17:51.942Z,56.60
2022-09-06T08:18:51.924Z,56.08
2022-09-06T08:19:51.911Z,55.88
2022-09-06T08:20:51.879Z,56.11
2022-09-06T08:21:51.903Z,56.80
2022-09-06T08:22:51.914Z,57.62
2022-09-06T08:23:51.883Z,57.62
2022-09-06T08:24:51.903Z,56.60
2022-09-06T08:25:51.877Z,56.40
2022-09-06T08:26:51.850Z,56.51
2022-09-06T08:27:51.841Z,55.88
2022-09-06T08:28:51.837Z,55.29
2022-09-06T08:29:51.869Z,55.66
2022-09-06T08:30:51.825Z,54.47
2022-09-06T08:31:51.950Z,55.43
2022-09-06T08:32:51.833Z,54.35
2022-09-06T08:33:51.801Z,54.44
2022-09-06T08:34:51.869Z,53.50
2022-09-06T08:35:51.784Z,52.71
2022-09-06T08:36:51.808Z,53.40
2022-09-06T08:37:51.788Z,50.14
2022-09-06T08:38:51.791Z,46.48
2022-09-06T08:39:51.837Z,43.74
2022-09-06T08:40:51.761Z,44.12
2022-09-06T08:41:51.804Z,42.70
2022-09-06T08:42:51.744Z,42.29
2022-09-06T08:45:55.628Z,46.31
2022-09-06T08:46:52.755Z,46.28
2022-09-06T08:47:51.748Z,46.33
2022-09-06T08:48:51.753Z,47.09
2022-09-06T08:49:51.724Z,49.22
2022-09-06T08:50:51.723Z,50.24
2022-09-06T08:51:51.753Z,50.46
2022-09-06T08:53:15.610Z,50.85
2022-09-06T08:53:55.220Z,50.07
2022-09-06T08:54:51.697Z,48.98
2022-09-06T08:55:51.745Z,48.00
2022-09-06T08:56:51.652Z,46.44
2022-09-06T08:57:51.652Z,48.36
2022-09-06T08:58:51.664Z,49.05
2022-09-06T08:59:51.659Z,50.19
2022-09-06T09:00:51.773Z,50.26
2022-09-06T09:01:51.725Z,49.87
2022-09-06T09:02:51.626Z,50.53
2022-09-06T09:03:51.636Z,51.45
2022-09-06T09:04:51.605Z,51.82
2022-09-06T09:05:51.610Z,50.59
2022-09-06T09:06:51.596Z,48.86
2022-09-06T09:07:51.609Z,48.34
2022-09-06T09:08:51.588Z,47.58
2022-09-06T09:09:51.599Z,46.37
2022-09-06T09:10:51.578Z,46.08
2022-09-06T09:11:51.597Z,45.02
2022-09-06T09:12:51.602Z,46.56
2022-09-06T09:13:51.577Z,46.47
2022-09-06T09:14:51.586Z,48.39
2022-09-06T09:15:51.584Z,48.46
2022-09-06T09:16:51.544Z,47.97
2022-09-06T09:17:51.553Z,47.65
2022-09-06T09:18:51.514Z,46.54
2022-09-06T09:19:51.553Z,44.85
2022-09-06T09:20:51.546Z,43.48
2022-09-06T09:21:51.497Z,42.88
2022-09-06T09:22:51.547Z,39.61
2022-09-06T09:23:51.510Z,37.46
2022-09-06T09:24:51.488Z,35.53
2022-09-06T09:25:51.495Z,33.95
2022-09-06T09:26:51.453Z,33.56
2022-09-06T09:27:51.460Z,33.44
2022-09-06T09:28:51.470Z,32.54
2022-09-06T09:30:53.457Z,32.64
2022-09-06T09:31:53.625Z,33.51
2022-09-06T09:32:51.470Z,31.91
2022-09-06T09:33:51.460Z,31.79
2022-09-06T09:34:51.454Z,31.10
2022-09-06T09:35:51.437Z,30.57
2022-09-06T09:37:59.077Z,30.89
2022-09-06T09:38:52.411Z,29.80
2022-09-06T09:39:51.490Z,30.79
2022-09-06T09:40:51.386Z,30.82
2022-09-06T09:41:52.421Z,32.68
2022-09-06T09:42:51.418Z,34.78
2022-09-06T09:43:51.366Z,33.96
2022-09-06T09:44:51.396Z,32.64
2022-09-06T09:45:51.494Z,31.73
2022-09-06T09:46:51.407Z,31.82
2022-09-06T09:47:51.379Z,31.50
2022-09-06T09:48:51.365Z,31.32
2022-09-06T09:49:51.329Z,32.04
2022-09-06T09:50:51.331Z,31.42
2022-09-06T09:51:51.326Z,32.86
2022-09-06T09:52:51.325Z,33.73
2022-09-06T09:53:51.305Z,33.12
2022-09-06T09:54:51.840Z,33.53
2022-09-06T09:55:51.347Z,32.23
2022-09-06T09:56:51.315Z,32.04
2022-09-06T09:57:51.339Z,31.73
2022-09-06T09:58:51.280Z,32.32
2022-09-06T09:59:51.275Z,32.82
2022-09-06T10:00:51.329Z,32.23
2022-09-06T10:01:51.303Z,31.89
2022-09-06T10:02:51.279Z,30.60
2022-09-06T10:04:53.250Z,30.00
2022-09-06T10:05:51.323Z,29.19
2022-09-06T10:07:53.256Z,28.48
2022-09-06T10:08:51.225Z,30.79
2022-09-06T10:09:51.215Z,31.24
2022-09-06T10:10:51.226Z,35.10
2022-09-06T10:11:51.217Z,35.36
2022-09-06T10:12:51.348Z,33.96
2022-09-06T10:13:52.221Z,33.26
2022-09-06T10:14:51.233Z,32.75
2022-09-06T10:15:51.280Z,32.54
2022-09-06T10:16:52.196Z,32.21
2022-09-06T10:17:51.204Z,30.91
2022-09-06T10:18:51.178Z,30.28
2022-09-06T10:19:51.430Z,29.47
2022-09-06T10:20:51.189Z,29.96
2022-09-06T10:21:51.160Z,28.47
2022-09-06T10:22:51.156Z,28.09
2022-09-06T10:24:53.195Z,31.13
2022-09-06T10:25:51.150Z,31.60
2022-09-06T10:26:51.162Z,31.07
2022-09-06T10:28:10.450Z,31.76
2022-09-06T10:28:53.154Z,31.37
2022-09-06T10:29:51.142Z,30.65
2022-09-06T10:30:51.193Z,31.26
2022-09-06T10:31:51.114Z,31.26
2022-09-06T10:32:51.171Z,33.04
2022-09-06T10:33:51.140Z,32.75
2022-09-06T10:34:51.125Z,32.94
2022-09-06T10:35:51.130Z,32.23
2022-09-06T10:36:51.138Z,31.84
2022-09-06T10:37:51.097Z,30.54
2022-09-06T10:38:51.072Z,29.34
2022-09-06T10:39:51.101Z,29.33
2022-09-06T10:40:51.100Z,28.70
2022-09-06T10:41:52.066Z,28.30
2022-09-06T10:42:51.072Z,28.29
2022-09-06T10:43:51.053Z,28.09
2022-09-06T10:44:51.043Z,28.20
2022-09-06T10:45:51.046Z,27.38
2022-09-06T10:46:51.073Z,28.50
2022-09-06T10:47:51.031Z,28.20
2022-09-06T10:48:51.051Z,26.73
2022-09-06T10:49:51.030Z,28.78
2022-09-06T10:50:51.033Z,29.87
2022-09-06T10:51:51.034Z,29.76
2022-09-06T10:52:51.003Z,31.19
2022-09-06T10:53:50.999Z,30.37
2022-09-06T10:54:51.025Z,28.55
2022-09-06T10:55:50.999Z,28.52
2022-09-06T10:56:51.018Z,28.20
2022-09-06T10:59:52.962Z,26.91
2022-09-06T11:00:51.982Z,25.75
2022-09-06T11:01:51.102Z,26.14
2022-09-06T11:05:52.998Z,25.87
2022-09-06T11:06:50.938Z,26.65
2022-09-06T11:08:53.448Z,26.55
2022-09-06T11:09:50.931Z,25.74
2022-09-06T11:10:50.926Z,25.34
2022-09-06T11:11:50.918Z,25.34
2022-09-06T11:12:50.930Z,25.64
2022-09-06T11:13:50.954Z,26.26
2022-09-06T11:14:50.937Z,25.66
2022-09-06T11:15:51.013Z,26.22
2022-09-06T11:16:50.925Z,25.18
2022-09-06T11:17:50.941Z,25.75
2022-09-06T11:18:50.877Z,27.46
2022-09-06T11:19:50.892Z,27.64
2022-09-06T11:20:50.881Z,26.87
2022-09-06T11:21:50.897Z,26.25
2022-09-06T11:22:50.894Z,27.17
2022-09-06T11:23:50.945Z,26.95
2022-09-06T11:24:50.857Z,26.34
2022-09-06T11:25:50.892Z,25.27
2022-09-06T11:26:50.865Z,25.86
2022-09-06T11:27:53.944Z,26.17
2022-09-06T11:28:51.877Z,25.50
2022-09-06T11:29:50.834Z,26.67
2022-09-06T11:30:50.872Z,26.01
2022-09-06T11:32:52.849Z,26.03
2022-09-06T11:33:50.845Z,25.74
2022-09-06T11:34:50.879Z,26.41
2022-09-06T11:35:50.858Z,27.25
2022-09-06T11:36:50.803Z,27.67
2022-09-06T11:37:50.797Z,28.26
2022-09-06T11:38:50.833Z,27.14
2022-09-06T11:40:52.792Z,25.40
2022-09-06T11:41:50.788Z,25.08
2022-09-06T11:42:50.781Z,25.08
2022-09-06T11:43:50.812Z,25.39
2022-09-06T11:44:50.792Z,25.35
2022-09-06T11:45:50.768Z,26.26
2022-09-06T11:46:50.804Z,26.78
2022-09-06T11:47:50.764Z,27.10
2022-09-06T11:48:50.768Z,26.67
2022-09-06T11:49:50.764Z,25.04
2022-09-06T11:50:50.777Z,24.51
2022-09-06T11:51:50.748Z,25.73
2022-09-06T11:52:50.754Z,25.72
2022-09-06T11:53:50.768Z,24.74
2022-09-06T11:54:50.760Z,26.34
2022-09-06T11:55:57.364Z,25.95
2022-09-06T11:56:50.736Z,25.85
2022-09-06T11:57:50.720Z,25.65
2022-09-06T11:58:50.713Z,25.51
2022-09-06T11:59:50.759Z,25.27
2022-09-06T12:00:50.803Z,25.16
2022-09-06T12:01:50.749Z,24.87
2022-09-06T12:02:50.965Z,25.56
2022-09-06T12:04:07.271Z,25.38
2022-09-06T12:04:53.794Z,24.84
2022-09-06T12:05:50.680Z,28.28
2022-09-06T12:06:50.681Z,28.92
2022-09-06T12:07:50.673Z,29.50
2022-09-06T12:08:50.657Z,28.50
2022-09-06T12:09:50.664Z,28.17
2022-09-06T12:10:50.727Z,27.35
2022-09-06T12:11:50.684Z,26.51
2022-09-06T12:12:50.652Z,25.87
2022-09-06T12:13:50.640Z,25.27
2022-09-06T12:14:50.644Z,24.92
2022-09-06T12:15:50.746Z,26.27
2022-09-06T12:16:50.630Z,26.43
2022-09-06T12:17:50.633Z,25.92
2022-09-06T12:18:50.626Z,25.39
2022-09-06T12:19:50.649Z,25.18
2022-09-06T12:20:50.640Z,24.33
2022-09-06T12:21:50.610Z,24.14
2022-09-06T12:22:50.597Z,25.23
2022-09-06T12:23:50.617Z,25.02
2022-09-06T12:24:50.584Z,25.31
2022-09-06T12:25:50.597Z,25.90
2022-09-06T12:26:55.042Z,24.81
2022-09-06T12:27:52.580Z,24.82
2022-09-06T12:28:50.617Z,25.35
2022-09-06T12:29:50.587Z,26.08
2022-09-06T12:30:50.660Z,25.31
2022-09-06T12:31:50.622Z,25.29
2022-09-06T12:32:50.564Z,25.20
2022-09-06T12:33:50.564Z,25.67
2022-09-06T12:36:51.538Z,24.51
2022-09-06T12:37:50.527Z,25.12
2022-09-06T12:38:50.516Z,25.21
2022-09-06T12:39:50.597Z,24.21
2022-09-06T12:40:50.520Z,24.88
2022-09-06T12:41:50.527Z,24.87
2022-09-06T12:42:50.512Z,24.21
2022-09-06T12:43:50.533Z,26.15
2022-09-06T12:44:50.528Z,26.46
2022-09-06T12:45:50.522Z,26.15
2022-09-06T12:46:50.514Z,26.12
2022-09-06T12:47:50.496Z,25.34
2022-09-06T12:48:50.532Z,24.55
2022-09-06T12:49:50.487Z,25.09
2022-09-06T12:50:50.477Z,25.49
2022-09-06T12:51:50.473Z,25.09
2022-09-06T12:52:50.482Z,24.02
2022-09-06T12:53:50.485Z,24.28
2022-09-06T12:54:50.537Z,23.80
2022-09-06T12:55:50.480Z,24.40
2022-09-06T12:56:50.459Z,24.69
2022-09-06T12:57:50.451Z,25.62
2022-09-06T12:58:50.439Z,25.52
2022-09-06T12:59:50.456Z,25.89
2022-09-06T13:00:50.555Z,25.54
2022-09-06T13:01:50.566Z,26.18
2022-09-06T13:02:50.539Z,26.64
2022-09-06T13:03:50.440Z,25.98
2022-09-06T13:04:50.441Z,26.16
2022-09-06T13:05:50.421Z,26.06
2022-09-06T13:06:50.414Z,25.74
2022-09-06T13:07:50.415Z,26.53
2022-09-06T13:08:50.427Z,24.85
2022-09-06T13:09:50.403Z,25.20
2022-09-06T13:10:50.407Z,25.28
2022-09-06T13:11:50.389Z,24.68
2022-09-06T13:12:50.396Z,23.71
2022-09-06T13:14:22.339Z,23.61
2022-09-06T13:14:50.403Z,23.86
2022-09-06T13:15:50.398Z,23.31
2022-09-06T13:16:50.364Z,23.72
2022-09-06T13:17:50.368Z,24.30
2022-09-06T13:18:50.393Z,25.68
2022-09-06T13:19:50.355Z,25.24
2022-09-06T13:20:50.352Z,24.87